sensor_id;sensor_type;location;lat;lon;timestamp;noise_LAeq;noise_LA_min;noise_LA_max;noise_LA01;noise_LA95
64077;Laerm;51039;49.696;10.808;2022-08-19T00:01:34;30.44;29.22;31.61;;
64077;Laerm;51039;49.696;10.808;2022-08-19T00:04:03;30.40;29.22;31.53;;
64077;Laerm;51039;49.696;10.808;2022-08-19T00:06:29;30.39;29.17;31.46;;
64077;Laerm;51039;49.696;10.808;2022-08-19T00:08:56;30.37;29.14;31.51;;
64077;Laerm;51039;49.696;10.808;2022-08-19T00:11:22;30.37;29.14;31.37;;
64077;Laerm;51039;49.696;10.808;2022-08-19T00:13:48;30.36;29.11;31.47;;
64077;Laerm;51039;49.696;10.808;2022-08-19T00:16:16;30.34;29.01;31.36;;
64077;Laerm;51039;49.696;10.808;2022-08-19T00:18:46;30.33;29.18;31.47;;
64077;Laerm;51039;49.696;10.808;2022-08-19T00:21:11;30.33;29.03;31.41;;
64077;Laerm;51039;49.696;10.808;2022-08-19T00:23:36;30.30;28.92;31.48;;
64077;Laerm;51039;49.696;10.808;2022-08-19T00:26:05;30.30;29.10;31.42;;
64077;Laerm;51039;49.696;10.808;2022-08-19T00:28:31;30.30;29.19;31.43;;
64077;Laerm;51039;49.696;10.808;2022-08-19T00:30:57;30.30;29.17;31.38;;
64077;Laerm;51039;49.696;10.808;2022-08-19T00:33:22;30.33;29.16;31.58;;
64077;Laerm;51039;49.696;10.808;2022-08-19T00:35:47;30.34;29.32;31.48;;
64077;Laerm;51039;49.696;10.808;2022-08-19T00:38:13;30.33;29.00;31.44;;
64077;Laerm;51039;49.696;10.808;2022-08-19T00:40:38;30.30;29.14;31.26;;
64077;Laerm;51039;49.696;10.808;2022-08-19T00:43:10;30.28;29.00;31.38;;
64077;Laerm;51039;49.696;10.808;2022-08-19T00:45:39;30.27;28.97;31.42;;
64077;Laerm;51039;49.696;10.808;2022-08-19T00:48:07;30.24;29.07;31.34;;
64077;Laerm;51039;49.696;10.808;2022-08-19T00:50:33;30.21;28.99;31.35;;
64077;Laerm;51039;49.696;10.808;2022-08-19T00:53:00;30.21;29.10;31.26;;
64077;Laerm;51039;49.696;10.808;2022-08-19T00:55:31;30.18;28.85;31.24;;
64077;Laerm;51039;49.696;10.808;2022-08-19T00:58:02;30.16;28.89;31.33;;
64077;Laerm;51039;49.696;10.808;2022-08-19T01:00:28;30.13;28.89;31.14;;
64077;Laerm;51039;49.696;10.808;2022-08-19T01:02:53;30.13;28.82;31.30;;
64077;Laerm;51039;49.696;10.808;2022-08-19T01:05:23;30.11;28.88;31.27;;
64077;Laerm;51039;49.696;10.808;2022-08-19T01:07:50;30.10;28.79;31.27;;
64077;Laerm;51039;49.696;10.808;2022-08-19T01:10:21;30.10;28.56;31.08;;
64077;Laerm;51039;49.696;10.808;2022-08-19T01:12:49;30.10;28.90;31.24;;
64077;Laerm;51039;49.696;10.808;2022-08-19T01:15:20;30.12;28.84;31.16;;
64077;Laerm;51039;49.696;10.808;2022-08-19T01:17:46;30.13;29.01;31.31;;
64077;Laerm;51039;49.696;10.808;2022-08-19T01:20:16;30.14;28.91;31.21;;
64077;Laerm;51039;49.696;10.808;2022-08-19T01:22:54;30.15;29.08;31.24;;
64077;Laerm;51039;49.696;10.808;2022-08-19T01:25:26;30.16;28.86;31.32;;
64077;Laerm;51039;49.696;10.808;2022-08-19T01:27:53;30.16;28.93;31.43;;
64077;Laerm;51039;49.696;10.808;2022-08-19T01:30:24;30.18;28.94;31.30;;
64077;Laerm;51039;49.696;10.808;2022-08-19T01:32:51;30.20;29.07;31.39;;
64077;Laerm;51039;49.696;10.808;2022-08-19T01:35:17;30.23;28.89;31.32;;
64077;Laerm;51039;49.696;10.808;2022-08-19T01:37:46;30.21;29.13;31.29;;
64077;Laerm;51039;49.696;10.808;2022-08-19T01:40:12;30.22;29.03;31.55;;
64077;Laerm;51039;49.696;10.808;2022-08-19T01:42:37;30.19;28.93;31.49;;
64077;Laerm;51039;49.696;10.808;2022-08-19T01:45:04;30.20;28.77;31.33;;
64077;Laerm;51039;49.696;10.808;2022-08-19T01:47:30;30.24;29.05;31.23;;
64077;Laerm;51039;49.696;10.808;2022-08-19T01:49:55;30.26;29.15;31.33;;
64077;Laerm;51039;49.696;10.808;2022-08-19T01:52:20;30.24;29.04;31.31;;
64077;Laerm;51039;49.696;10.808;2022-08-19T01:54:46;30.25;29.02;31.40;;
64077;Laerm;51039;49.696;10.808;2022-08-19T01:57:12;30.27;29.00;31.28;;
64077;Laerm;51039;49.696;10.808;2022-08-19T01:59:40;30.28;29.11;31.29;;
64077;Laerm;51039;49.696;10.808;2022-08-19T02:02:06;30.31;29.24;31.49;;
64077;Laerm;51039;49.696;10.808;2022-08-19T02:04:35;30.33;29.31;31.44;;
64077;Laerm;51039;49.696;10.808;2022-08-19T02:07:01;30.35;29.18;31.43;;
64077;Laerm;51039;49.696;10.808;2022-08-19T02:09:26;30.36;29.22;31.44;;
64077;Laerm;51039;49.696;10.808;2022-08-19T02:11:52;30.36;29.12;31.59;;
64077;Laerm;51039;49.696;10.808;2022-08-19T02:14:18;30.36;28.87;31.50;;
64077;Laerm;51039;49.696;10.808;2022-08-19T02:16:43;30.37;29.17;31.61;;
64077;Laerm;51039;49.696;10.808;2022-08-19T02:19:09;30.38;29.34;31.54;;
64077;Laerm;51039;49.696;10.808;2022-08-19T02:21:35;30.38;29.24;31.57;;
64077;Laerm;51039;49.696;10.808;2022-08-19T02:24:02;30.39;29.18;31.50;;
64077;Laerm;51039;49.696;10.808;2022-08-19T02:26:27;30.40;29.13;31.38;;
64077;Laerm;51039;49.696;10.808;2022-08-19T02:28:53;30.44;29.21;31.63;;
64077;Laerm;51039;49.696;10.808;2022-08-19T02:31:22;30.46;29.23;31.62;;
64077;Laerm;51039;49.696;10.808;2022-08-19T02:33:47;30.47;29.10;31.73;;
64077;Laerm;51039;49.696;10.808;2022-08-19T02:36:14;30.48;29.25;31.67;;
64077;Laerm;51039;49.696;10.808;2022-08-19T02:38:40;30.48;29.36;31.56;;
64077;Laerm;51039;49.696;10.808;2022-08-19T02:41:11;30.48;29.32;31.51;;
64077;Laerm;51039;49.696;10.808;2022-08-19T02:43:37;30.47;29.19;31.85;;
64077;Laerm;51039;49.696;10.808;2022-08-19T02:46:18;30.46;29.37;31.59;;
64077;Laerm;51039;49.696;10.808;2022-08-19T02:48:47;30.48;29.39;31.61;;
64077;Laerm;51039;49.696;10.808;2022-08-19T02:51:25;30.49;29.24;31.54;;
64077;Laerm;51039;49.696;10.808;2022-08-19T02:53:52;30.51;29.41;31.55;;
64077;Laerm;51039;49.696;10.808;2022-08-19T02:56:18;30.55;29.40;31.71;;
64077;Laerm;51039;49.696;10.808;2022-08-19T02:58:44;30.54;29.48;31.67;;
64077;Laerm;51039;49.696;10.808;2022-08-19T03:01:11;30.51;29.18;31.61;;
64077;Laerm;51039;49.696;10.808;2022-08-19T03:03:37;30.50;29.25;31.51;;
64077;Laerm;51039;49.696;10.808;2022-08-19T03:06:09;30.48;29.44;31.52;;
64077;Laerm;51039;49.696;10.808;2022-08-19T03:08:37;30.47;29.21;31.61;;
64077;Laerm;51039;49.696;10.808;2022-08-19T03:11:02;30.46;29.19;31.80;;
64077;Laerm;51039;49.696;10.808;2022-08-19T03:13:28;30.49;29.28;31.60;;
64077;Laerm;51039;49.696;10.808;2022-08-19T03:15:53;30.54;29.30;31.88;;
64077;Laerm;51039;49.696;10.808;2022-08-19T03:18:19;30.56;29.13;31.72;;
64077;Laerm;51039;49.696;10.808;2022-08-19T03:20:48;30.62;29.19;31.78;;
64077;Laerm;51039;49.696;10.808;2022-08-19T03:23:15;30.60;29.47;31.69;;
64077;Laerm;51039;49.696;10.808;2022-08-19T03:25:44;30.56;29.26;31.58;;
64077;Laerm;51039;49.696;10.808;2022-08-19T03:28:12;30.59;29.29;31.75;;
64077;Laerm;51039;49.696;10.808;2022-08-19T03:30:39;30.63;29.46;31.79;;
64077;Laerm;51039;49.696;10.808;2022-08-19T03:33:08;30.60;29.29;31.64;;
64077;Laerm;51039;49.696;10.808;2022-08-19T03:35:35;30.54;29.28;31.65;;
64077;Laerm;51039;49.696;10.808;2022-08-19T03:38:04;30.56;29.46;31.80;;
64077;Laerm;51039;49.696;10.808;2022-08-19T03:40:31;30.64;29.43;31.77;;
64077;Laerm;51039;49.696;10.808;2022-08-19T03:42:56;30.69;29.57;31.84;;
64077;Laerm;51039;49.696;10.808;2022-08-19T03:45:22;30.68;29.45;31.79;;
64077;Laerm;51039;49.696;10.808;2022-08-19T03:47:48;30.66;29.44;31.79;;
64077;Laerm;51039;49.696;10.808;2022-08-19T03:50:13;30.61;29.51;31.90;;
64077;Laerm;51039;49.696;10.808;2022-08-19T03:52:38;30.60;29.43;31.62;;
64077;Laerm;51039;49.696;10.808;2022-08-19T03:55:05;30.64;29.56;31.82;;
64077;Laerm;51039;49.696;10.808;2022-08-19T03:57:30;30.69;29.57;31.78;;
64077;Laerm;51039;49.696;10.808;2022-08-19T03:59:55;30.71;29.04;31.89;;
64077;Laerm;51039;49.696;10.808;2022-08-19T04:02:21;30.70;29.36;31.85;;
64077;Laerm;51039;49.696;10.808;2022-08-19T04:04:46;30.65;29.36;31.65;;
64077;Laerm;51039;49.696;10.808;2022-08-19T04:07:13;30.63;29.44;31.72;;
64077;Laerm;51039;49.696;10.808;2022-08-19T04:09:41;30.64;29.56;31.75;;
64077;Laerm;51039;49.696;10.808;2022-08-19T04:12:07;30.67;29.43;31.92;;
64077;Laerm;51039;49.696;10.808;2022-08-19T04:14:33;30.72;29.53;31.71;;
64077;Laerm;51039;49.696;10.808;2022-08-19T04:17:00;30.76;29.61;31.86;;
64077;Laerm;51039;49.696;10.808;2022-08-19T04:19:29;30.77;29.62;32.03;;
64077;Laerm;51039;49.696;10.808;2022-08-19T04:21:54;30.77;29.63;31.96;;
64077;Laerm;51039;49.696;10.808;2022-08-19T04:24:20;30.76;29.54;31.86;;
64077;Laerm;51039;49.696;10.808;2022-08-19T04:26:46;30.75;29.60;31.78;;
64077;Laerm;51039;49.696;10.808;2022-08-19T04:29:16;30.75;29.67;31.84;;
64077;Laerm;51039;49.696;10.808;2022-08-19T04:31:42;30.73;29.52;32.01;;
64077;Laerm;51039;49.696;10.808;2022-08-19T04:34:11;30.73;29.51;31.95;;
64077;Laerm;51039;49.696;10.808;2022-08-19T04:36:39;30.72;29.62;31.86;;
64077;Laerm;51039;49.696;10.808;2022-08-19T04:39:08;30.73;29.34;31.72;;
64077;Laerm;51039;49.696;10.808;2022-08-19T04:41:34;30.69;29.56;31.77;;
64077;Laerm;51039;49.696;10.808;2022-08-19T04:44:18;30.67;29.39;31.84;;
64077;Laerm;51039;49.696;10.808;2022-08-19T04:46:46;30.68;29.29;31.93;;
64077;Laerm;51039;49.696;10.808;2022-08-19T04:49:13;30.66;29.58;31.82;;
64077;Laerm;51039;49.696;10.808;2022-08-19T04:51:41;30.66;29.50;31.69;;
64077;Laerm;51039;49.696;10.808;2022-08-19T04:54:08;30.67;29.45;31.84;;
64077;Laerm;51039;49.696;10.808;2022-08-19T04:56:34;30.73;29.31;31.96;;
64077;Laerm;51039;49.696;10.808;2022-08-19T04:58:59;30.76;29.63;31.84;;
64077;Laerm;51039;49.696;10.808;2022-08-19T05:01:30;30.75;29.63;31.92;;
64077;Laerm;51039;49.696;10.808;2022-08-19T05:03:58;30.76;29.38;31.86;;
64077;Laerm;51039;49.696;10.808;2022-08-19T05:06:24;30.82;29.67;31.92;;
64077;Laerm;51039;49.696;10.808;2022-08-19T05:08:50;30.85;29.82;32.05;;
64077;Laerm;51039;49.696;10.808;2022-08-19T05:11:19;30.85;29.71;32.04;;
64077;Laerm;51039;49.696;10.808;2022-08-19T05:13:46;30.87;29.68;31.93;;
64077;Laerm;51039;49.696;10.808;2022-08-19T05:16:13;30.92;29.67;32.00;;
64077;Laerm;51039;49.696;10.808;2022-08-19T05:18:39;30.93;29.68;32.09;;
64077;Laerm;51039;49.696;10.808;2022-08-19T05:21:24;30.99;29.85;32.02;;
64077;Laerm;51039;49.696;10.808;2022-08-19T05:24:09;31.04;29.66;32.17;;
64077;Laerm;51039;49.696;10.808;2022-08-19T05:26:39;31.11;29.90;32.25;;
64077;Laerm;51039;49.696;10.808;2022-08-19T05:29:06;31.21;30.00;32.52;;
64077;Laerm;51039;49.696;10.808;2022-08-19T05:31:33;31.21;30.04;32.34;;
64077;Laerm;51039;49.696;10.808;2022-08-19T05:33:58;31.22;30.02;32.31;;
64077;Laerm;51039;49.696;10.808;2022-08-19T05:36:25;31.25;30.14;32.33;;
64077;Laerm;51039;49.696;10.808;2022-08-19T05:38:52;31.22;30.01;32.47;;
64077;Laerm;51039;49.696;10.808;2022-08-19T05:41:18;31.25;30.12;32.36;;
64077;Laerm;51039;49.696;10.808;2022-08-19T05:43:44;31.27;30.05;32.32;;
64077;Laerm;51039;49.696;10.808;2022-08-19T05:46:16;31.29;30.11;32.50;;
64077;Laerm;51039;49.696;10.808;2022-08-19T05:48:41;31.32;30.07;32.53;;
64077;Laerm;51039;49.696;10.808;2022-08-19T05:51:07;31.27;29.84;32.48;;
64077;Laerm;51039;49.696;10.808;2022-08-19T05:53:33;31.27;30.13;32.55;;
64077;Laerm;51039;49.696;10.808;2022-08-19T05:56:12;31.28;30.09;32.32;;
64077;Laerm;51039;49.696;10.808;2022-08-19T05:58:38;31.26;30.13;32.43;;
64077;Laerm;51039;49.696;10.808;2022-08-19T06:01:09;31.19;30.01;32.23;;
64077;Laerm;51039;49.696;10.808;2022-08-19T06:03:36;31.20;30.07;32.19;;
64077;Laerm;51039;49.696;10.808;2022-08-19T06:06:05;31.27;30.07;32.33;;
64077;Laerm;51039;49.696;10.808;2022-08-19T06:08:32;31.32;30.17;32.54;;
64077;Laerm;51039;49.696;10.808;2022-08-19T06:11:21;31.31;30.07;32.48;;
64077;Laerm;51039;49.696;10.808;2022-08-19T06:13:49;31.37;30.19;32.58;;
64077;Laerm;51039;49.696;10.808;2022-08-19T06:16:15;31.49;30.18;32.57;;
64077;Laerm;51039;49.696;10.808;2022-08-19T06:18:51;31.49;30.17;32.51;;
64077;Laerm;51039;49.696;10.808;2022-08-19T06:21:21;31.46;30.20;32.74;;
64077;Laerm;51039;49.696;10.808;2022-08-19T06:23:48;31.47;30.27;32.73;;
64077;Laerm;51039;49.696;10.808;2022-08-19T06:26:15;31.59;30.51;32.79;;
64077;Laerm;51039;49.696;10.808;2022-08-19T06:28:41;31.65;30.31;32.64;;
64077;Laerm;51039;49.696;10.808;2022-08-19T06:31:10;31.65;30.38;32.86;;
64077;Laerm;51039;49.696;10.808;2022-08-19T06:33:35;31.58;30.23;32.88;;
64077;Laerm;51039;49.696;10.808;2022-08-19T06:36:02;31.55;30.49;32.66;;
64077;Laerm;51039;49.696;10.808;2022-08-19T06:38:28;31.64;30.58;32.83;;
64077;Laerm;51039;49.696;10.808;2022-08-19T06:41:03;31.83;30.63;33.02;;
64077;Laerm;51039;49.696;10.808;2022-08-19T06:43:29;32.12;30.86;33.30;;
64077;Laerm;51039;49.696;10.808;2022-08-19T06:45:55;32.46;31.16;33.71;;
64077;Laerm;51039;49.696;10.808;2022-08-19T06:48:20;32.62;31.37;33.67;;
64077;Laerm;51039;49.696;10.808;2022-08-19T06:50:45;32.78;31.54;33.88;;
64077;Laerm;51039;49.696;10.808;2022-08-19T06:53:12;32.86;31.66;34.98;;
64077;Laerm;51039;49.696;10.808;2022-08-19T06:55:37;32.99;31.73;34.22;;
64077;Laerm;51039;49.696;10.808;2022-08-19T06:58:05;33.04;31.69;34.20;;
64077;Laerm;51039;49.696;10.808;2022-08-19T07:00:30;33.17;31.87;34.46;;
64077;Laerm;51039;49.696;10.808;2022-08-19T07:02:56;33.22;31.86;34.54;;
64077;Laerm;51039;49.696;10.808;2022-08-19T07:05:21;33.36;31.98;36.05;;
64077;Laerm;51039;49.696;10.808;2022-08-19T07:07:47;33.57;31.90;35.87;;
64077;Laerm;51039;49.696;10.808;2022-08-19T07:10:12;33.55;32.33;34.92;;
64077;Laerm;51039;49.696;10.808;2022-08-19T07:12:38;33.63;32.36;34.85;;
64077;Laerm;51039;49.696;10.808;2022-08-19T07:15:05;33.64;32.33;34.79;;
64077;Laerm;51039;49.696;10.808;2022-08-19T07:17:31;33.58;32.24;34.70;;
64077;Laerm;51039;49.696;10.808;2022-08-19T07:19:56;33.56;32.28;34.99;;
64077;Laerm;51039;49.696;10.808;2022-08-19T07:22:22;33.70;32.51;35.16;;
64077;Laerm;51039;49.696;10.808;2022-08-19T07:24:51;33.67;32.29;35.03;;
64077;Laerm;51039;49.696;10.808;2022-08-19T07:27:18;33.66;32.52;34.92;;
64077;Laerm;51039;49.696;10.808;2022-08-19T07:29:43;33.67;32.50;35.01;;
64077;Laerm;51039;49.696;10.808;2022-08-19T07:32:09;33.66;32.19;34.74;;
64077;Laerm;51039;49.696;10.808;2022-08-19T07:34:36;33.69;32.26;35.00;;
64077;Laerm;51039;49.696;10.808;2022-08-19T07:37:06;33.67;32.40;34.76;;
64077;Laerm;51039;49.696;10.808;2022-08-19T07:39:34;33.62;32.40;35.77;;
64077;Laerm;51039;49.696;10.808;2022-08-19T07:42:02;33.56;32.31;34.67;;
64077;Laerm;51039;49.696;10.808;2022-08-19T07:44:28;33.57;32.13;35.00;;
64077;Laerm;51039;49.696;10.808;2022-08-19T07:46:56;33.54;32.24;34.69;;
64077;Laerm;51039;49.696;10.808;2022-08-19T07:49:22;33.51;32.17;34.67;;
64077;Laerm;51039;49.696;10.808;2022-08-19T07:51:53;33.54;32.12;34.71;;
64077;Laerm;51039;49.696;10.808;2022-08-19T07:54:21;33.55;32.43;34.68;;
64077;Laerm;51039;49.696;10.808;2022-08-19T07:56:47;33.53;32.23;34.64;;
64077;Laerm;51039;49.696;10.808;2022-08-19T07:59:14;33.46;32.24;34.72;;
64077;Laerm;51039;49.696;10.808;2022-08-19T08:01:40;33.46;32.03;34.63;;
64077;Laerm;51039;49.696;10.808;2022-08-19T08:04:06;33.49;32.16;34.60;;
64077;Laerm;51039;49.696;10.808;2022-08-19T08:06:51;33.48;32.33;34.65;;
64077;Laerm;51039;49.696;10.808;2022-08-19T08:09:38;33.56;32.26;34.87;;
64077;Laerm;51039;49.696;10.808;2022-08-19T08:12:07;33.76;32.47;35.01;;
64077;Laerm;51039;49.696;10.808;2022-08-19T08:14:41;33.87;32.72;35.34;;
64077;Laerm;51039;49.696;10.808;2022-08-19T08:17:08;33.93;32.81;35.07;;
64077;Laerm;51039;49.696;10.808;2022-08-19T08:19:34;34.05;32.78;35.21;;
64077;Laerm;51039;49.696;10.808;2022-08-19T08:22:00;34.26;32.88;35.55;;
64077;Laerm;51039;49.696;10.808;2022-08-19T08:24:30;34.48;33.18;35.71;;
64077;Laerm;51039;49.696;10.808;2022-08-19T08:26:57;34.64;33.37;35.97;;
64077;Laerm;51039;49.696;10.808;2022-08-19T08:29:27;34.83;33.55;36.22;;
64077;Laerm;51039;49.696;10.808;2022-08-19T08:31:53;35.02;33.68;36.33;;
64077;Laerm;51039;49.696;10.808;2022-08-19T08:34:19;35.14;33.88;36.41;;
64077;Laerm;51039;49.696;10.808;2022-08-19T08:36:45;35.57;34.08;36.80;;
64077;Laerm;51039;49.696;10.808;2022-08-19T08:39:16;35.77;34.56;36.90;;
64077;Laerm;51039;49.696;10.808;2022-08-19T08:42:08;35.93;34.60;37.15;;
64077;Laerm;51039;49.696;10.808;2022-08-19T08:47:06;36.27;34.99;37.74;;
64077;Laerm;51039;49.696;10.808;2022-08-19T08:50:06;36.42;35.12;37.69;;
64077;Laerm;51039;49.696;10.808;2022-08-19T08:52:36;36.55;35.28;37.90;;
64077;Laerm;51039;49.696;10.808;2022-08-19T08:55:11;36.55;35.23;38.76;;
64077;Laerm;51039;49.696;10.808;2022-08-19T08:57:51;36.58;35.05;37.70;;
64077;Laerm;51039;49.696;10.808;2022-08-19T09:00:29;36.55;35.12;37.92;;
64077;Laerm;51039;49.696;10.808;2022-08-19T09:02:56;36.51;35.06;37.63;;
64077;Laerm;51039;49.696;10.808;2022-08-19T09:05:26;36.48;34.83;37.66;;
64077;Laerm;51039;49.696;10.808;2022-08-19T09:10:40;36.41;34.91;37.63;;
64077;Laerm;51039;49.696;10.808;2022-08-19T09:13:16;36.34;34.92;37.67;;
64077;Laerm;51039;49.696;10.808;2022-08-19T09:16:05;36.24;34.97;37.70;;
64077;Laerm;51039;49.696;10.808;2022-08-19T09:18:46;36.17;34.89;37.34;;
64077;Laerm;51039;49.696;10.808;2022-08-19T09:21:13;36.16;34.66;37.37;;
64077;Laerm;51039;49.696;10.808;2022-08-19T09:23:40;36.13;34.85;37.41;;
64077;Laerm;51039;49.696;10.808;2022-08-19T09:26:10;36.03;34.63;37.42;;
64077;Laerm;51039;49.696;10.808;2022-08-19T09:28:39;35.92;34.46;37.09;;
64077;Laerm;51039;49.696;10.808;2022-08-19T09:31:07;35.84;34.70;37.24;;
64077;Laerm;51039;49.696;10.808;2022-08-19T09:33:32;35.77;34.46;36.90;;
64077;Laerm;51039;49.696;10.808;2022-08-19T09:36:03;35.69;34.37;37.21;;
64077;Laerm;51039;49.696;10.808;2022-08-19T09:38:28;35.64;34.30;36.83;;
64077;Laerm;51039;49.696;10.808;2022-08-19T09:40:54;35.64;34.37;36.81;;
64077;Laerm;51039;49.696;10.808;2022-08-19T09:43:19;35.70;34.45;37.01;;
64077;Laerm;51039;49.696;10.808;2022-08-19T09:45:44;35.73;34.65;37.05;;
64077;Laerm;51039;49.696;10.808;2022-08-19T09:48:10;35.77;34.49;36.94;;
64077;Laerm;51039;49.696;10.808;2022-08-19T09:50:35;35.83;34.73;37.01;;
64077;Laerm;51039;49.696;10.808;2022-08-19T09:53:03;35.87;34.63;37.03;;
64077;Laerm;51039;49.696;10.808;2022-08-19T09:55:31;35.89;34.61;37.15;;
64077;Laerm;51039;49.696;10.808;2022-08-19T09:57:56;35.88;34.63;37.05;;
64077;Laerm;51039;49.696;10.808;2022-08-19T10:00:21;35.85;34.56;37.24;;
64077;Laerm;51039;49.696;10.808;2022-08-19T10:02:47;35.86;34.54;37.04;;
64077;Laerm;51039;49.696;10.808;2022-08-19T10:05:12;35.91;34.61;37.16;;
64077;Laerm;51039;49.696;10.808;2022-08-19T10:07:55;35.95;34.69;37.25;;
64077;Laerm;51039;49.696;10.808;2022-08-19T10:10:21;36.01;34.64;37.22;;
64077;Laerm;51039;49.696;10.808;2022-08-19T10:12:47;36.14;34.99;37.33;;
64077;Laerm;51039;49.696;10.808;2022-08-19T10:15:12;36.27;34.83;37.50;;
64077;Laerm;51039;49.696;10.808;2022-08-19T10:17:38;36.43;35.30;37.58;;
64077;Laerm;51039;49.696;10.808;2022-08-19T10:20:04;36.50;35.17;37.72;;
64077;Laerm;51039;49.696;10.808;2022-08-19T10:22:30;36.50;35.22;37.66;;
64077;Laerm;51039;49.696;10.808;2022-08-19T10:24:55;36.49;35.20;37.68;;
64077;Laerm;51039;49.696;10.808;2022-08-19T10:27:21;36.48;34.99;37.67;;
64077;Laerm;51039;49.696;10.808;2022-08-19T10:29:47;36.47;35.10;37.61;;
64077;Laerm;51039;49.696;10.808;2022-08-19T10:32:13;36.57;35.33;37.71;;
64077;Laerm;51039;49.696;10.808;2022-08-19T10:34:39;36.64;35.24;37.77;;
64077;Laerm;51039;49.696;10.808;2022-08-19T10:37:05;36.68;35.15;37.95;;
64077;Laerm;51039;49.696;10.808;2022-08-19T10:39:35;36.72;35.42;37.87;;
64077;Laerm;51039;49.696;10.808;2022-08-19T10:42:07;36.71;35.26;37.89;;
64077;Laerm;51039;49.696;10.808;2022-08-19T10:44:36;36.66;35.29;37.93;;
64077;Laerm;51039;49.696;10.808;2022-08-19T10:47:02;36.60;35.14;37.91;;
64077;Laerm;51039;49.696;10.808;2022-08-19T10:49:29;36.54;35.12;37.65;;
64077;Laerm;51039;49.696;10.808;2022-08-19T10:51:55;36.49;35.12;37.87;;
64077;Laerm;51039;49.696;10.808;2022-08-19T10:54:39;36.43;35.17;37.72;;
64077;Laerm;51039;49.696;10.808;2022-08-19T10:57:23;36.39;35.03;37.70;;
64077;Laerm;51039;49.696;10.808;2022-08-19T10:59:54;36.38;35.00;37.50;;
64077;Laerm;51039;49.696;10.808;2022-08-19T11:02:20;36.40;34.80;37.75;;
64077;Laerm;51039;49.696;10.808;2022-08-19T11:04:45;36.42;35.20;37.69;;
64077;Laerm;51039;49.696;10.808;2022-08-19T11:07:10;36.43;35.12;37.59;;
64077;Laerm;51039;49.696;10.808;2022-08-19T11:09:39;36.42;35.14;37.54;;
64077;Laerm;51039;49.696;10.808;2022-08-19T11:12:06;36.40;35.12;37.54;;
64077;Laerm;51039;49.696;10.808;2022-08-19T11:14:33;36.35;35.08;37.81;;
64077;Laerm;51039;49.696;10.808;2022-08-19T11:16:58;36.34;35.11;37.71;;
64077;Laerm;51039;49.696;10.808;2022-08-19T11:19:24;36.30;34.84;37.51;;
64077;Laerm;51039;49.696;10.808;2022-08-19T11:21:50;36.26;34.57;37.57;;
64077;Laerm;51039;49.696;10.808;2022-08-19T11:24:24;36.24;34.99;37.39;;
64077;Laerm;51039;49.696;10.808;2022-08-19T11:26:51;36.22;34.73;37.77;;
64077;Laerm;51039;49.696;10.808;2022-08-19T11:29:19;36.10;34.80;37.21;;
64077;Laerm;51039;49.696;10.808;2022-08-19T11:31:48;36.06;34.60;37.45;;
64077;Laerm;51039;49.696;10.808;2022-08-19T11:34:18;35.97;34.71;37.08;;
64077;Laerm;51039;49.696;10.808;2022-08-19T11:36:46;35.89;34.64;37.08;;
64077;Laerm;51039;49.696;10.808;2022-08-19T11:39:14;35.80;34.48;36.96;;
64077;Laerm;51039;49.696;10.808;2022-08-19T11:41:40;35.74;34.52;36.96;;
64077;Laerm;51039;49.696;10.808;2022-08-19T11:44:06;35.70;34.33;36.93;;
64077;Laerm;51039;49.696;10.808;2022-08-19T11:46:33;35.68;34.43;36.82;;
64077;Laerm;51039;49.696;10.808;2022-08-19T11:49:00;35.63;34.24;36.85;;
64077;Laerm;51039;49.696;10.808;2022-08-19T11:51:28;35.61;34.40;36.88;;
64077;Laerm;51039;49.696;10.808;2022-08-19T11:53:55;35.53;34.06;36.59;;
64077;Laerm;51039;49.696;10.808;2022-08-19T11:56:21;35.50;34.27;36.74;;
64077;Laerm;51039;49.696;10.808;2022-08-19T11:58:47;35.46;34.19;36.65;;
64077;Laerm;51039;49.696;10.808;2022-08-19T12:01:15;35.39;34.19;36.61;;
64077;Laerm;51039;49.696;10.808;2022-08-19T12:03:42;35.32;34.15;36.75;;
64077;Laerm;51039;49.696;10.808;2022-08-19T12:06:10;35.23;33.85;36.40;;
64077;Laerm;51039;49.696;10.808;2022-08-19T12:08:37;35.09;33.96;37.81;;
64077;Laerm;51039;49.696;10.808;2022-08-19T12:11:03;35.01;33.59;36.14;;
64077;Laerm;51039;49.696;10.808;2022-08-19T12:13:29;34.97;33.58;36.21;;
64077;Laerm;51039;49.696;10.808;2022-08-19T12:15:55;35.00;33.60;36.25;;
64077;Laerm;51039;49.696;10.808;2022-08-19T12:18:21;35.05;33.66;36.05;;
64077;Laerm;51039;49.696;10.808;2022-08-19T12:20:47;35.16;33.85;36.39;;
64077;Laerm;51039;49.696;10.808;2022-08-19T12:23:16;35.19;33.79;36.41;;
64077;Laerm;51039;49.696;10.808;2022-08-19T12:25:46;35.21;33.96;36.55;;
64077;Laerm;51039;49.696;10.808;2022-08-19T12:28:16;35.26;34.00;36.40;;
64077;Laerm;51039;49.696;10.808;2022-08-19T12:30:41;35.28;34.02;36.44;;
64077;Laerm;51039;49.696;10.808;2022-08-19T12:33:07;35.29;34.14;36.39;;
64077;Laerm;51039;49.696;10.808;2022-08-19T12:35:32;35.33;34.09;36.65;;
64077;Laerm;51039;49.696;10.808;2022-08-19T12:37:58;35.42;34.19;36.71;;
64077;Laerm;51039;49.696;10.808;2022-08-19T12:40:24;35.46;34.18;36.59;;
64077;Laerm;51039;49.696;10.808;2022-08-19T12:42:50;35.54;34.33;39.60;;
64077;Laerm;51039;49.696;10.808;2022-08-19T12:45:16;35.56;34.19;36.69;;
64077;Laerm;51039;49.696;10.808;2022-08-19T12:47:41;35.57;34.09;36.75;;
64077;Laerm;51039;49.696;10.808;2022-08-19T12:50:07;35.59;34.36;36.82;;
64077;Laerm;51039;49.696;10.808;2022-08-19T12:52:35;35.61;34.36;36.95;;
64077;Laerm;51039;49.696;10.808;2022-08-19T12:55:06;35.63;34.52;36.76;;
64077;Laerm;51039;49.696;10.808;2022-08-19T12:57:32;35.66;34.46;36.83;;
64077;Laerm;51039;49.696;10.808;2022-08-19T13:00:03;35.68;34.44;36.84;;
64077;Laerm;51039;49.696;10.808;2022-08-19T13:02:30;35.65;34.33;36.91;;
64077;Laerm;51039;49.696;10.808;2022-08-19T13:04:57;35.63;34.22;36.96;;
64077;Laerm;51039;49.696;10.808;2022-08-19T13:07:23;35.60;34.42;37.04;;
64077;Laerm;51039;49.696;10.808;2022-08-19T13:09:51;35.60;34.23;36.67;;
64077;Laerm;51039;49.696;10.808;2022-08-19T13:12:16;35.65;34.45;37.14;;
64077;Laerm;51039;49.696;10.808;2022-08-19T13:14:42;35.66;34.38;36.79;;
64077;Laerm;51039;49.696;10.808;2022-08-19T13:17:07;35.63;34.21;36.67;;
64077;Laerm;51039;49.696;10.808;2022-08-19T13:19:36;35.63;34.46;36.96;;
64077;Laerm;51039;49.696;10.808;2022-08-19T13:22:01;35.61;34.42;36.79;;
64077;Laerm;51039;49.696;10.808;2022-08-19T13:24:27;35.60;34.24;36.91;;
64077;Laerm;51039;49.696;10.808;2022-08-19T13:26:52;35.59;34.37;36.92;;
64077;Laerm;51039;49.696;10.808;2022-08-19T13:29:17;35.58;34.14;36.84;;
64077;Laerm;51039;49.696;10.808;2022-08-19T13:32:01;35.54;34.30;36.80;;
64077;Laerm;51039;49.696;10.808;2022-08-19T13:34:45;35.45;34.19;36.72;;
64077;Laerm;51039;49.696;10.808;2022-08-19T13:37:12;34.29;31.45;36.22;;
64077;Laerm;51039;49.696;10.808;2022-08-19T13:39:37;32.39;31.03;38.78;;
64077;Laerm;51039;49.696;10.808;2022-08-19T13:42:03;31.95;30.46;37.49;;